Portada
METAR-TAF:

METAR-TAF

Aeroports :

Le Touquet, França

latitud: 50-30-53N, longitud: 001-37-39E, altitud: 6 m

Observació

L'informe es va fer fa 36 minuts, a les 21:30 UTC
Vent 5 kt del Est/Sud-Est
Temperatura 6°C
Humitat 100%
Pressió 1026 hPa
Visibilitat: 0600 m
boira

METAR: LFAT 232130Z AUTO 12005KT 0700 0600 R13/0800N FG VV/// 06/06 Q1026

Hora: 23:06 (22:06 UTC)

Pronòstic

L'informe es va fer fa 4 hores i 26 minuts, a les 17:40 UTC
Pronòstic vàlid del 23 a les 17 UTC al 23 a les 24 UTC
Vent 3 kt amb direcció variable
Visibilitat 10 km o més
Cel ennuvolat a una alçada de 2500 ft
Temporalment
l' 23 a les 17 UTC al 23 a les 24 UTC
Visibilitat: 4000 m
boirina

TAF: LFAT 231740Z 2317/2324 VRB03KT 9999 BKN025 TEMPO 2317/2324 4000 BR

Observacions i pronòstics meteorològics de més de 4000 aeroports (METAR i TAF).

Les estacions disponibles són els punts grocs i vermells al mapa.

Posi el ratolí al punt desitjat per veure el nom de l'estació.

Feu clic per veure les observacions i els pronòstics meteorològics.

Per canviar el mapa: feu clic els botons verds amb una creu de color negre per apropar; al botó verd amb un guió per allunyar la imatge; o en les fletxes verdes per a mapes adjacents.


METAR-TAF: